createdAt,value
2022-07-25T00:01:12.061Z,101136.97
2022-07-25T00:03:39.218Z,101130.59
2022-07-25T00:06:06.677Z,101131.16
2022-07-25T00:08:39.995Z,101130.81
2022-07-25T00:11:06.476Z,101126.28
2022-07-25T00:13:32.923Z,101121.09
2022-07-25T00:15:59.500Z,101117.75
2022-07-25T00:18:26.872Z,101111.84
2022-07-25T00:20:53.363Z,101109.56
2022-07-25T00:23:19.946Z,101103.75
2022-07-25T00:25:46.398Z,101095.69
2022-07-25T00:28:12.863Z,101102.19
2022-07-25T00:30:39.333Z,101093.66
2022-07-25T00:33:06.111Z,101098.53
2022-07-25T00:35:32.538Z,101098.41
2022-07-25T00:37:58.950Z,101086.19
2022-07-25T00:40:25.444Z,101088.84
2022-07-25T00:42:52.225Z,101096.66
2022-07-25T00:45:18.749Z,101092.63
2022-07-25T00:47:45.179Z,101088.13
2022-07-25T00:50:11.735Z,101090.97
2022-07-25T00:52:38.318Z,101080.91
2022-07-25T00:55:05.284Z,101077.09
2022-07-25T00:57:31.715Z,101072.59
2022-07-25T00:59:58.329Z,101075.94
2022-07-25T01:02:24.916Z,101066.53
2022-07-25T01:04:51.406Z,101069.75
2022-07-25T01:07:18.276Z,101072.09
2022-07-25T01:09:44.782Z,101073.28
2022-07-25T01:12:11.250Z,101073.75
2022-07-25T01:14:38.372Z,101066.91
2022-07-25T01:17:17.492Z,101062.25
2022-07-25T01:19:43.958Z,101068.75
2022-07-25T01:22:10.390Z,101065.44
2022-07-25T01:24:37.240Z,101062.81
2022-07-25T01:27:03.833Z,101058.97
2022-07-25T01:29:30.256Z,101055.44
2022-07-25T01:31:56.720Z,101055.44
2022-07-25T01:34:23.155Z,101058.16
2022-07-25T01:36:49.639Z,101060.66
2022-07-25T01:39:16.080Z,101058.16
2022-07-25T01:41:42.500Z,101047.47
2022-07-25T01:44:09.317Z,101051.22
2022-07-25T01:46:36.037Z,101040.19
2022-07-25T01:49:11.795Z,101052.41
2022-07-25T01:51:38.292Z,101039.72
2022-07-25T01:54:06.745Z,101041.69
2022-07-25T01:56:36.830Z,101040.06
2022-07-25T01:59:03.300Z,101041.56
2022-07-25T02:01:29.767Z,101035.56
2022-07-25T02:03:56.296Z,101031.53
2022-07-25T02:06:22.736Z,101031.66
2022-07-25T02:08:49.179Z,101035.56
2022-07-25T02:11:16.440Z,101027.03
2022-07-25T02:13:43.049Z,101019.19
2022-07-25T02:16:29.015Z,101019.72
2022-07-25T02:18:56.591Z,101018.56
2022-07-25T02:21:23.037Z,101015.03
2022-07-25T02:23:55.408Z,101019.03
2022-07-25T02:26:21.994Z,101014.19
2022-07-25T02:28:49.985Z,101005.19
2022-07-25T02:31:16.501Z,101009.06
2022-07-25T02:33:43.538Z,101003.94
2022-07-25T02:36:11.055Z,101000.03
2022-07-25T02:38:38.040Z,101002.88
2022-07-25T02:41:05.041Z,100994.34
2022-07-25T02:43:31.544Z,100992.69
2022-07-25T02:45:58.069Z,100988.66
2022-07-25T02:48:24.569Z,100987.69
2022-07-25T02:50:51.026Z,100993.38
2022-07-25T02:53:28.940Z,100989.75
2022-07-25T02:56:04.138Z,100980.88
2022-07-25T02:58:32.452Z,100980.03
2022-07-25T03:00:58.931Z,100976.88
2022-07-25T03:03:25.401Z,100965.53
2022-07-25T03:05:52.007Z,100968.44
2022-07-25T03:08:18.450Z,100971.75
2022-07-25T03:10:44.895Z,100966.44
2022-07-25T03:13:11.318Z,100964.22
2022-07-25T03:15:38.251Z,100962.13
2022-07-25T03:18:04.698Z,100959.28
2022-07-25T03:20:31.139Z,100955.25
2022-07-25T03:22:57.605Z,100956.91
2022-07-25T03:25:24.066Z,100956.59
2022-07-25T03:27:50.816Z,100956.03
2022-07-25T03:30:17.381Z,100958.53
2022-07-25T03:32:43.823Z,100956.38
2022-07-25T03:35:10.281Z,100949.84
2022-07-25T03:37:36.714Z,100956.84
2022-07-25T03:40:04.158Z,100949.53
2022-07-25T03:42:35.360Z,100944.53
2022-07-25T03:45:02.234Z,100944.78
2022-07-25T03:47:28.669Z,100933.56
2022-07-25T03:49:55.247Z,100936.72
2022-07-25T03:52:21.684Z,100936.06
2022-07-25T03:54:48.144Z,100931.34
2022-07-25T03:57:14.580Z,100934.38
2022-07-25T03:59:41.061Z,100934.81
2022-07-25T04:02:07.793Z,100930.97
2022-07-25T04:04:34.360Z,100931.97
2022-07-25T04:07:00.821Z,100928.97
2022-07-25T04:09:27.251Z,100936.06
2022-07-25T04:11:58.831Z,100938.81
2022-07-25T04:14:25.281Z,100931.47
2022-07-25T04:16:51.825Z,100927.81
2022-07-25T04:19:18.325Z,100924.91
2022-07-25T04:21:45.105Z,100922.91
2022-07-25T04:24:11.543Z,100918.03
2022-07-25T04:26:37.983Z,100919.91
2022-07-25T04:29:04.415Z,100921.03
2022-07-25T04:31:31.094Z,100909.00
2022-07-25T04:33:58.447Z,100911.28
2022-07-25T04:36:24.988Z,100914.41
2022-07-25T04:38:51.511Z,100900.66
2022-07-25T04:41:17.977Z,100897.69
2022-07-25T04:43:48.483Z,100889.16
2022-07-25T04:46:20.237Z,100884.03
2022-07-25T04:48:46.859Z,100874.47
2022-07-25T04:51:14.610Z,100868.88
2022-07-25T04:53:41.048Z,100866.50
2022-07-25T04:56:10.447Z,100854.84
2022-07-25T04:58:37.346Z,100850.25
2022-07-25T05:01:03.805Z,100851.34
2022-07-25T05:03:30.267Z,100853.59
2022-07-25T05:05:56.728Z,100849.34
2022-07-25T05:08:23.185Z,100849.94
2022-07-25T05:10:49.608Z,100851.16
2022-07-25T05:13:16.265Z,100843.56
2022-07-25T05:15:42.726Z,100838.97
2022-07-25T05:18:09.147Z,100844.53
2022-07-25T05:20:35.584Z,100838.25
2022-07-25T05:23:02.034Z,100844.69
2022-07-25T05:25:29.273Z,100840.28
2022-07-25T05:27:58.329Z,100841.09
2022-07-25T05:30:25.073Z,100837.28
2022-07-25T05:32:51.487Z,100845.06
2022-07-25T05:35:17.912Z,100835.31
2022-07-25T05:37:44.351Z,100834.03
2022-07-25T05:40:10.949Z,100824.16
2022-07-25T05:42:37.503Z,100832.56
2022-07-25T05:45:04.701Z,100831.63
2022-07-25T05:47:31.544Z,100824.13
2022-07-25T05:49:58.043Z,100829.84
2022-07-25T05:52:24.484Z,100824.28
2022-07-25T05:54:51.185Z,100819.13
2022-07-25T05:57:17.705Z,100819.28
2022-07-25T06:00:09.688Z,100815.34
2022-07-25T06:02:36.325Z,100807.84
2022-07-25T06:05:03.427Z,100810.50
2022-07-25T06:07:29.866Z,100809.69
2022-07-25T06:09:56.332Z,100803.16
2022-07-25T06:12:24.415Z,100801.72
2022-07-25T06:14:51.165Z,100799.78
2022-07-25T06:17:18.043Z,100797.03
2022-07-25T06:19:44.465Z,100798.53
2022-07-25T06:22:11.370Z,100791.41
2022-07-25T06:24:38.522Z,100783.88
2022-07-25T06:27:04.982Z,100785.16
2022-07-25T06:29:31.412Z,100780.13
2022-07-25T06:31:57.868Z,100777.72
2022-07-25T06:34:28.524Z,100774.84
2022-07-25T06:36:55.272Z,100769.56
2022-07-25T06:39:21.703Z,100764.81
2022-07-25T06:41:48.145Z,100768.63
2022-07-25T06:44:17.294Z,100766.34
2022-07-25T06:46:43.771Z,100768.91
2022-07-25T06:49:10.348Z,100759.41
2022-07-25T06:51:36.870Z,100759.91
2022-07-25T06:54:04.059Z,100757.09
2022-07-25T06:56:32.835Z,100750.25
2022-07-25T06:59:00.318Z,100747.06
2022-07-25T07:01:27.013Z,100739.75
2022-07-25T07:03:53.567Z,100737.72
2022-07-25T07:06:20.039Z,100740.19
2022-07-25T07:08:46.498Z,100728.00
2022-07-25T07:11:15.256Z,100724.31
2022-07-25T07:13:41.717Z,100728.06
2022-07-25T07:16:08.801Z,100722.72
2022-07-25T07:18:35.578Z,100714.91
2022-07-25T07:21:01.992Z,100719.06
2022-07-25T07:23:28.980Z,100721.94
2022-07-25T07:25:55.842Z,100711.63
2022-07-25T07:28:22.460Z,100711.56
2022-07-25T07:33:37.882Z,100706.16
2022-07-25T07:36:04.521Z,100711.38
2022-07-25T07:38:30.954Z,100706.41
2022-07-25T07:40:57.417Z,100693.13
2022-07-25T07:43:29.165Z,100705.06
2022-07-25T07:45:56.878Z,100698.44
2022-07-25T07:48:23.339Z,100690.44
2022-07-25T07:50:49.773Z,100694.91
2022-07-25T07:53:16.213Z,100693.44
2022-07-25T07:55:45.501Z,100688.88
2022-07-25T07:58:15.737Z,100689.75
2022-07-25T08:00:44.148Z,100686.88
2022-07-25T08:03:10.829Z,100692.88
2022-07-25T08:05:43.308Z,100682.03
2022-07-25T08:08:12.046Z,100674.63
2022-07-25T08:10:40.952Z,100676.25
2022-07-25T08:13:15.949Z,100671.66
2022-07-25T08:15:44.645Z,100669.13
2022-07-25T08:18:17.413Z,100673.47
2022-07-25T08:20:48.513Z,100668.09
2022-07-25T08:23:15.267Z,100676.03
2022-07-25T08:25:42.466Z,100671.16
2022-07-25T08:28:09.409Z,100661.84
2022-07-25T08:30:45.332Z,100663.03
2022-07-25T08:33:13.960Z,100658.88
2022-07-25T08:35:45.449Z,100651.25
2022-07-25T08:38:11.892Z,100651.50
2022-07-25T08:40:38.510Z,100647.88
2022-07-25T08:43:04.971Z,100650.78
2022-07-25T08:45:33.259Z,100642.78
2022-07-25T08:47:59.715Z,100643.78
2022-07-25T08:50:28.576Z,100645.94
2022-07-25T08:53:10.428Z,100636.38
2022-07-25T08:55:45.076Z,100636.44
2022-07-25T08:58:14.158Z,100635.31
2022-07-25T09:00:41.871Z,100632.28
2022-07-25T09:03:08.787Z,100627.47
2022-07-25T09:05:37.254Z,100628.94
2022-07-25T09:08:12.853Z,100623.53
2022-07-25T09:10:42.336Z,100621.63
2022-07-25T09:13:14.243Z,100622.59
2022-07-25T09:15:50.155Z,100610.13
2022-07-25T09:18:18.972Z,100606.84
2022-07-25T09:21:11.766Z,100604.34
2022-07-25T09:23:39.269Z,100603.16
2022-07-25T09:26:13.535Z,100593.63
2022-07-25T09:28:40.864Z,100592.63
2022-07-25T09:31:07.399Z,100586.19
2022-07-25T09:33:33.871Z,100582.13
2022-07-25T09:36:11.187Z,100574.59
2022-07-25T09:38:37.981Z,100569.03
2022-07-25T09:41:04.561Z,100570.63
2022-07-25T09:43:40.710Z,100561.00
2022-07-25T09:46:08.158Z,100561.00
2022-07-25T09:48:36.494Z,100554.47
2022-07-25T09:51:03.514Z,100554.06
2022-07-25T09:53:30.116Z,100551.19
2022-07-25T09:55:57.476Z,100543.53
2022-07-25T09:58:25.628Z,100541.38
2022-07-25T10:01:05.500Z,100534.25
2022-07-25T10:03:53.525Z,100533.88
2022-07-25T10:06:24.953Z,100523.41
2022-07-25T10:08:51.972Z,100522.75
2022-07-25T10:11:27.729Z,100515.56
2022-07-25T10:13:55.140Z,100525.91
2022-07-25T10:16:27.180Z,100523.34
2022-07-25T10:18:55.847Z,100512.53
2022-07-25T10:21:27.212Z,100514.41
2022-07-25T10:24:20.144Z,100502.97
2022-07-25T10:26:53.504Z,100502.69
2022-07-25T10:29:19.942Z,100496.09
2022-07-25T10:31:50.945Z,100498.19
2022-07-25T10:34:30.642Z,100486.44
2022-07-25T10:37:09.702Z,100485.63
2022-07-25T10:39:42.147Z,100471.50
2022-07-25T10:42:13.505Z,100471.22
2022-07-25T10:44:42.732Z,100466.34
2022-07-25T10:47:12.089Z,100462.06
2022-07-25T10:50:06.852Z,100466.50
2022-07-25T10:52:31.641Z,100450.31
2022-07-25T10:54:59.944Z,100446.97
2022-07-25T10:57:31.695Z,100450.63
2022-07-25T11:00:06.540Z,100438.78
2022-07-25T11:02:33.242Z,100447.66
2022-07-25T11:05:04.172Z,100436.31
2022-07-25T11:07:36.015Z,100429.81
2022-07-25T11:10:05.500Z,100433.69
2022-07-25T11:12:32.402Z,100428.53
2022-07-25T11:15:04.518Z,100411.78
2022-07-25T11:17:31.066Z,100413.34
2022-07-25T11:20:07.134Z,100416.06
2022-07-25T11:22:34.489Z,100411.25
2022-07-25T11:25:01.782Z,100414.25
2022-07-25T11:27:33.247Z,100412.75
2022-07-25T11:30:19.874Z,100393.63
2022-07-25T11:32:51.993Z,100398.38
2022-07-25T11:35:22.546Z,100402.44
2022-07-25T11:37:50.763Z,100389.47
2022-07-25T11:40:18.730Z,100390.50
2022-07-25T11:42:48.380Z,100385.94
2022-07-25T11:45:25.515Z,100393.13
2022-07-25T11:48:09.859Z,100384.19
2022-07-25T11:50:41.673Z,100378.50
2022-07-25T11:53:10.821Z,100372.09
2022-07-25T11:55:42.817Z,100361.97
2022-07-25T11:58:10.961Z,100361.19
2022-07-25T12:00:48.587Z,100363.38
2022-07-25T12:03:20.189Z,100357.28
2022-07-25T12:05:48.641Z,100363.53
2022-07-25T12:08:20.356Z,100339.84
2022-07-25T12:10:49.103Z,100345.38
2022-07-25T12:13:26.969Z,100345.91
2022-07-25T12:15:55.723Z,100338.69
2022-07-25T12:18:22.198Z,100328.16
2022-07-25T12:20:48.661Z,100330.41
2022-07-25T12:23:15.115Z,100331.22
2022-07-25T12:25:43.930Z,100323.75
2022-07-25T12:28:11.418Z,100320.97
2022-07-25T12:30:41.469Z,100323.13
2022-07-25T12:33:07.945Z,100324.66
2022-07-25T12:35:37.170Z,100316.41
2022-07-25T12:38:04.546Z,100311.81
2022-07-25T12:40:31.147Z,100299.78
2022-07-25T12:42:58.818Z,100317.75
2022-07-25T12:45:25.704Z,100303.91
2022-07-25T12:47:52.122Z,100294.22
2022-07-25T12:50:18.576Z,100290.22
2022-07-25T12:52:45.683Z,100294.81
2022-07-25T12:55:18.621Z,100285.97
2022-07-25T12:57:46.335Z,100296.47
2022-07-25T13:00:15.889Z,100279.63
2022-07-25T13:02:42.443Z,100277.28
2022-07-25T13:05:09.408Z,100273.88
2022-07-25T13:07:36.170Z,100274.66
2022-07-25T13:10:03.822Z,100271.22
2022-07-25T13:12:30.266Z,100265.56
2022-07-25T13:14:56.760Z,100267.84
2022-07-25T13:17:27.306Z,100254.50
2022-07-25T13:19:55.370Z,100261.31
2022-07-25T13:22:21.808Z,100265.84
2022-07-25T13:24:48.256Z,100261.41
2022-07-25T13:27:15.192Z,100262.25
2022-07-25T13:29:41.627Z,100256.91
2022-07-25T13:32:10.176Z,100251.25
2022-07-25T13:34:36.803Z,100242.03
2022-07-25T13:37:04.493Z,100248.94
2022-07-25T13:39:31.038Z,100233.03
2022-07-25T13:41:57.510Z,100230.41
2022-07-25T13:44:23.935Z,100228.50
2022-07-25T13:46:50.595Z,100230.47
2022-07-25T13:49:18.103Z,100222.09
2022-07-25T13:51:45.545Z,100214.94
2022-07-25T13:54:12.407Z,100210.41
2022-07-25T13:56:38.913Z,100212.19
2022-07-25T13:59:05.721Z,100211.88
2022-07-25T14:01:32.337Z,100207.16
2022-07-25T14:03:58.888Z,100213.66
2022-07-25T14:06:25.331Z,100198.34
2022-07-25T14:08:51.760Z,100198.72
2022-07-25T14:11:18.190Z,100192.72
2022-07-25T14:13:45.229Z,100196.97
2022-07-25T14:16:16.345Z,100195.59
2022-07-25T14:18:42.762Z,100195.44
2022-07-25T14:21:09.255Z,100188.28
2022-07-25T14:23:35.692Z,100182.72
2022-07-25T14:26:02.155Z,100183.13
2022-07-25T14:28:29.672Z,100172.09
2022-07-25T14:30:56.592Z,100169.81
2022-07-25T14:33:23.028Z,100174.47
2022-07-25T14:35:49.483Z,100178.16
2022-07-25T14:38:15.942Z,100167.47
2022-07-25T14:40:42.698Z,100172.50
2022-07-25T14:43:09.124Z,100161.81
2022-07-25T14:45:36.983Z,100160.06
2022-07-25T14:48:06.148Z,100155.03
2022-07-25T14:50:32.567Z,100162.66
2022-07-25T14:52:58.999Z,100153.94
2022-07-25T14:55:25.793Z,100144.69
2022-07-25T14:57:52.352Z,100157.22
2022-07-25T15:00:18.859Z,100142.16
2022-07-25T15:02:45.346Z,100133.03
2022-07-25T15:05:11.850Z,100122.53
2022-07-25T15:07:38.333Z,100122.69
2022-07-25T15:10:05.308Z,100127.56
2022-07-25T15:12:31.816Z,100123.22
2022-07-25T15:14:58.265Z,100116.47
2022-07-25T15:17:24.776Z,100117.34
2022-07-25T15:19:51.309Z,100113.00
2022-07-25T15:22:17.811Z,100102.31
2022-07-25T15:25:21.436Z,100099.47
2022-07-25T15:27:31.132Z,100085.19
2022-07-25T15:29:58.232Z,100086.13
2022-07-25T15:32:24.671Z,100081.84
2022-07-25T15:34:51.142Z,100074.59
2022-07-25T15:37:17.610Z,100081.47
2022-07-25T15:39:45.341Z,100072.31
2022-07-25T15:42:12.187Z,100060.94
2022-07-25T15:44:38.620Z,100061.44
2022-07-25T15:47:06.728Z,100048.50
2022-07-25T15:49:33.386Z,100045.63
2022-07-25T15:52:00.157Z,100044.84
2022-07-25T15:54:29.501Z,100045.75
2022-07-25T15:56:56.363Z,100039.44
2022-07-25T15:59:22.991Z,100033.09
2022-07-25T16:01:49.420Z,100028.25
2022-07-25T16:04:16.002Z,100022.09
2022-07-25T16:06:42.608Z,100018.00
2022-07-25T16:09:09.257Z,100012.84
2022-07-25T16:11:38.182Z,100007.19
2022-07-25T16:14:05.387Z,100006.19
2022-07-25T16:16:31.900Z,100004.38
2022-07-25T16:18:58.352Z,100004.50
2022-07-25T16:21:24.820Z,100010.47
2022-07-25T16:23:51.268Z,100010.75
2022-07-25T16:26:17.738Z,100002.56
2022-07-25T16:28:44.239Z,100000.59
2022-07-25T16:31:10.796Z,100004.50
2022-07-25T16:33:37.991Z,100053.63
2022-07-25T16:36:04.889Z,100100.88
2022-07-25T16:38:31.600Z,100117.03
2022-07-25T16:40:58.033Z,100108.91
2022-07-25T16:43:24.777Z,100113.81
2022-07-25T16:45:51.541Z,100111.66
2022-07-25T16:48:18.153Z,100094.81
2022-07-25T16:50:44.662Z,100103.41
2022-07-25T16:53:11.091Z,100092.75
2022-07-25T16:55:38.347Z,100092.00
2022-07-25T16:58:04.827Z,100093.22
2022-07-25T17:00:31.282Z,100075.16
2022-07-25T17:02:58.497Z,100076.03
2022-07-25T17:05:25.051Z,100073.50
2022-07-25T17:07:57.245Z,100083.16
2022-07-25T17:10:25.230Z,100087.66
2022-07-25T17:12:51.691Z,100092.28
2022-07-25T17:15:18.195Z,100090.38
2022-07-25T17:17:44.613Z,100074.75
2022-07-25T17:20:11.568Z,100082.06
2022-07-25T17:22:38.784Z,100088.22
2022-07-25T17:25:06.428Z,100085.09
2022-07-25T17:27:32.872Z,100103.97
2022-07-25T17:29:59.299Z,100121.25
2022-07-25T17:32:29.744Z,100125.72
2022-07-25T17:34:57.244Z,100144.59
2022-07-25T17:37:24.341Z,100157.69
2022-07-25T17:39:50.851Z,100171.00
2022-07-25T17:42:22.092Z,100149.31
2022-07-25T17:44:50.135Z,100167.13
2022-07-25T17:47:16.671Z,100192.22
2022-07-25T17:49:43.127Z,100202.78
2022-07-25T17:52:12.209Z,100200.44
2022-07-25T17:54:42.602Z,100169.97
2022-07-25T17:57:08.995Z,100158.78
2022-07-25T17:59:35.645Z,100150.13
2022-07-25T18:02:03.050Z,100166.78
2022-07-25T18:04:29.623Z,100174.13
2022-07-25T18:06:57.244Z,100195.22
2022-07-25T18:09:24.216Z,100195.22
2022-07-25T18:11:50.946Z,100182.63
2022-07-25T18:14:17.363Z,100186.50
2022-07-25T18:16:45.384Z,100183.63
2022-07-25T18:19:12.200Z,100180.41
2022-07-25T18:21:38.727Z,100175.13
2022-07-25T18:24:05.971Z,100163.66
2022-07-25T18:26:33.656Z,100171.81
2022-07-25T18:29:00.302Z,100173.53
2022-07-25T18:31:26.794Z,100176.94
2022-07-25T18:33:53.253Z,100171.94
2022-07-25T18:36:20.437Z,100175.56
2022-07-25T18:38:48.364Z,100172.66
2022-07-25T18:41:30.613Z,100176.00
2022-07-25T18:43:57.342Z,100169.88
2022-07-25T18:46:24.228Z,100166.63
2022-07-25T18:48:51.304Z,100171.09
2022-07-25T18:51:17.875Z,100174.41
2022-07-25T18:53:47.938Z,100164.97
2022-07-25T18:56:15.019Z,100165.56
2022-07-25T18:58:41.434Z,100164.28
2022-07-25T19:01:09.224Z,100170.88
2022-07-25T19:03:37.360Z,100169.63
2022-07-25T19:06:04.537Z,100168.41
2022-07-25T19:08:31.052Z,100170.47
2022-07-25T19:10:57.532Z,100177.53
2022-07-25T19:13:47.697Z,100173.84
2022-07-25T19:16:11.837Z,100169.75
2022-07-25T19:18:39.268Z,100181.22
2022-07-25T19:21:05.919Z,100177.94
2022-07-25T19:23:32.622Z,100186.25
2022-07-25T19:26:00.365Z,100185.44
2022-07-25T19:28:28.788Z,100187.56
2022-07-25T19:30:56.451Z,100191.66
2022-07-25T19:33:23.024Z,100195.47
2022-07-25T19:35:49.548Z,100209.44
2022-07-25T19:38:15.963Z,100286.25
2022-07-25T19:40:42.912Z,100280.53
2022-07-25T19:43:09.423Z,100280.53
2022-07-25T19:45:36.369Z,100294.47
2022-07-25T19:48:02.809Z,100312.50
2022-07-25T19:50:29.312Z,100313.28
2022-07-25T19:52:55.840Z,100319.00
2022-07-25T19:55:22.384Z,100300.16
2022-07-25T19:57:48.800Z,100296.41
2022-07-25T20:00:15.623Z,100286.16
2022-07-25T20:02:42.108Z,100290.66
2022-07-25T20:05:09.982Z,100284.50
2022-07-25T20:07:36.431Z,100289.84
2022-07-25T20:10:04.356Z,100282.31
2022-07-25T20:12:33.397Z,100298.72
2022-07-25T20:14:59.910Z,100309.31
2022-07-25T20:17:26.769Z,100302.28
2022-07-25T20:19:53.363Z,100312.13
2022-07-25T20:22:19.947Z,100316.41
2022-07-25T20:24:46.438Z,100329.56
2022-07-25T20:27:12.872Z,100334.59
2022-07-25T20:29:39.312Z,100338.38
2022-07-25T20:32:05.962Z,100344.84
2022-07-25T20:34:32.633Z,100363.13
2022-07-25T20:36:59.060Z,100373.41
2022-07-25T20:39:26.367Z,100389.03
2022-07-25T20:41:55.249Z,100386.75
2022-07-25T20:44:21.804Z,100405.97
2022-07-25T20:46:48.239Z,100395.47
2022-07-25T20:49:14.720Z,100400.25
2022-07-25T20:51:41.208Z,100406.44
2022-07-25T20:54:07.888Z,100407.63
2022-07-25T20:56:34.316Z,100415.69
2022-07-25T20:59:00.786Z,100415.28
2022-07-25T21:01:27.333Z,100416.47
2022-07-25T21:03:53.831Z,100414.38
2022-07-25T21:06:20.278Z,100423.78
2022-07-25T21:08:53.821Z,100430.53
2022-07-25T21:11:20.284Z,100436.22
2022-07-25T21:13:46.767Z,100430.88
2022-07-25T21:16:13.424Z,100435.06
2022-07-25T21:18:39.911Z,100437.41
2022-07-25T21:21:11.722Z,100449.38
2022-07-25T21:23:38.866Z,100463.31
2022-07-25T21:26:05.721Z,100472.84
2022-07-25T21:28:32.232Z,100478.41
2022-07-25T21:30:58.694Z,100502.06
2022-07-25T21:33:25.196Z,100520.34
2022-07-25T21:35:53.666Z,100538.41
2022-07-25T21:38:27.407Z,100544.91
2022-07-25T21:40:55.361Z,100520.59
2022-07-25T21:43:21.852Z,100489.78
2022-07-25T21:45:48.373Z,100475.19
2022-07-25T21:48:14.943Z,100486.94
2022-07-25T21:50:44.014Z,100492.56
2022-07-25T21:53:13.729Z,100500.81
2022-07-25T21:55:40.621Z,100498.38
2022-07-25T21:58:07.823Z,100504.69
2022-07-25T22:00:40.038Z,100506.50
2022-07-25T22:03:11.786Z,100498.19
2022-07-25T22:05:38.249Z,100490.13
2022-07-25T22:08:05.116Z,100482.72
2022-07-25T22:10:31.634Z,100490.47
2022-07-25T22:12:58.074Z,100506.13
2022-07-25T22:15:24.579Z,100503.47
2022-07-25T22:17:51.018Z,100506.53
2022-07-25T22:20:19.320Z,100524.22
2022-07-25T22:22:48.002Z,100510.53
2022-07-25T22:25:15.537Z,100513.06
2022-07-25T22:27:43.094Z,100515.94
2022-07-25T22:30:14.702Z,100512.41
2022-07-25T22:32:44.762Z,100505.63
2022-07-25T22:35:12.494Z,100509.75
2022-07-25T22:37:38.970Z,100511.44
2022-07-25T22:40:06.051Z,100510.25
2022-07-25T22:42:32.484Z,100508.31
2022-07-25T22:44:58.953Z,100506.13
2022-07-25T22:47:25.390Z,100504.06
2022-07-25T22:49:51.823Z,100512.97
2022-07-25T22:52:18.300Z,100512.97
2022-07-25T22:54:44.791Z,100516.34
2022-07-25T22:57:11.211Z,100511.09
2022-07-25T22:59:37.666Z,100513.03
2022-07-25T23:02:04.557Z,100516.88
2022-07-25T23:04:31.051Z,100529.28
2022-07-25T23:06:57.589Z,100536.50
2022-07-25T23:09:24.037Z,100537.84
2022-07-25T23:11:50.671Z,100538.59
2022-07-25T23:14:17.111Z,100543.09
2022-07-25T23:16:43.640Z,100556.28
2022-07-25T23:19:10.556Z,100560.50
2022-07-25T23:21:37.195Z,100551.38
2022-07-25T23:24:05.690Z,100553.94
2022-07-25T23:26:32.116Z,100564.53
2022-07-25T23:28:58.563Z,100555.22
2022-07-25T23:31:25.039Z,100542.47
2022-07-25T23:33:51.501Z,100551.69
2022-07-25T23:36:17.935Z,100559.09
2022-07-25T23:38:44.378Z,100572.19
2022-07-25T23:41:10.814Z,100576.69
2022-07-25T23:43:56.555Z,100579.19
2022-07-25T23:46:27.894Z,100577.34
2022-07-25T23:48:57.362Z,100586.34
2022-07-25T23:51:23.882Z,100595.63
2022-07-25T23:53:50.394Z,100600.03
2022-07-25T23:56:20.817Z,100592.06
2022-07-25T23:58:49.870Z,100588.81
